createdAt,value
2024-01-01T00:01:55.966Z,48.28
2024-01-01T00:07:17.820Z,49.85
2024-01-01T00:12:39.679Z,53.22
2024-01-01T00:18:01.494Z,50.45
2024-01-01T00:23:24.447Z,51.08
2024-01-01T00:28:46.197Z,48.45
2024-01-01T00:34:08.100Z,46.70
2024-01-01T00:39:29.845Z,44.30
2024-01-01T00:44:51.563Z,42.50
2024-01-01T00:50:13.809Z,41.83
2024-01-01T00:55:35.762Z,44.42
2024-01-01T01:00:57.665Z,40.85
2024-01-01T01:06:24.652Z,45.00
2024-01-01T01:11:47.236Z,36.90
2024-01-01T01:17:10.060Z,43.08
2024-01-01T01:22:31.969Z,39.22
2024-01-01T01:27:53.745Z,45.95
2024-01-01T01:33:15.626Z,41.88
2024-01-01T01:38:38.090Z,43.60
2024-01-01T01:43:59.927Z,45.38
2024-01-01T01:49:21.747Z,42.42
2024-01-01T01:54:46.425Z,44.78
2024-01-01T02:00:08.696Z,41.17
2024-01-01T02:05:30.835Z,47.10
2024-01-01T02:10:52.884Z,42.13
2024-01-01T02:16:14.707Z,46.85
2024-01-01T02:21:36.452Z,38.92
2024-01-01T02:26:58.195Z,39.65
2024-01-01T02:32:19.968Z,36.08
2024-01-01T02:37:41.800Z,39.42
2024-01-01T02:43:04.442Z,37.08
2024-01-01T02:48:26.284Z,35.60
2024-01-01T02:53:48.102Z,33.88
2024-01-01T02:59:11.567Z,33.90
2024-01-01T03:04:33.363Z,33.85
2024-01-01T03:09:55.122Z,29.13
2024-01-01T03:15:16.870Z,34.00
2024-01-01T03:20:38.694Z,32.83
2024-01-01T03:26:00.573Z,32.28
2024-01-01T03:31:22.314Z,32.13
2024-01-01T03:36:44.064Z,32.05
2024-01-01T03:42:05.868Z,32.15
2024-01-01T03:47:29.022Z,30.33
2024-01-01T03:52:50.864Z,31.45
2024-01-01T03:58:12.692Z,30.48
2024-01-01T04:03:34.443Z,32.05
2024-01-01T04:08:56.227Z,30.20
2024-01-01T04:14:18.066Z,28.40
2024-01-01T04:19:40.000Z,31.45
2024-01-01T04:25:01.873Z,32.08
2024-01-01T04:30:23.619Z,28.83
2024-01-01T04:35:45.610Z,33.00
2024-01-01T04:41:07.438Z,31.20
2024-01-01T04:46:29.169Z,29.58
2024-01-01T04:51:50.875Z,28.40
2024-01-01T04:57:12.651Z,27.85
2024-01-01T05:02:34.377Z,29.17
2024-01-01T05:07:56.154Z,30.05
2024-01-01T05:13:17.921Z,30.58
2024-01-01T05:18:39.725Z,28.98
2024-01-01T05:24:01.501Z,29.77
2024-01-01T05:29:23.318Z,27.55
2024-01-01T05:34:45.144Z,27.70
2024-01-01T05:40:07.402Z,30.85
2024-01-01T05:45:29.114Z,30.50
2024-01-01T05:50:50.831Z,27.48
2024-01-01T05:56:12.866Z,29.98
2024-01-01T06:01:34.656Z,32.88
2024-01-01T06:06:56.371Z,29.95
2024-01-01T06:12:18.113Z,31.83
2024-01-01T06:17:39.958Z,31.52
2024-01-01T06:23:03.619Z,35.15
2024-01-01T06:28:25.445Z,43.28
2024-01-01T06:33:47.251Z,32.28
2024-01-01T06:39:09.028Z,34.83
2024-01-01T06:44:30.771Z,37.72
2024-01-01T06:49:52.501Z,38.25
2024-01-01T06:55:16.856Z,44.92
2024-01-01T07:00:38.630Z,42.42
2024-01-01T07:06:00.406Z,34.15
2024-01-01T07:11:22.329Z,43.65
2024-01-01T07:16:44.146Z,46.38
2024-01-01T07:22:05.959Z,49.53
2024-01-01T07:27:27.700Z,50.50
2024-01-01T07:32:49.466Z,48.55
2024-01-01T07:38:11.329Z,52.63
2024-01-01T07:43:33.101Z,50.75
2024-01-01T07:48:54.902Z,47.97
2024-01-01T07:54:16.694Z,46.58
2024-01-01T07:59:38.397Z,53.45
2024-01-01T08:05:00.196Z,54.35
2024-01-01T08:10:22.039Z,53.60
2024-01-01T08:15:43.832Z,55.03
2024-01-01T08:21:05.854Z,61.35
2024-01-01T08:26:27.631Z,59.15
2024-01-01T08:31:49.456Z,56.28
2024-01-01T08:37:11.230Z,56.70
2024-01-01T08:42:32.987Z,52.83
2024-01-01T08:47:54.843Z,57.15
2024-01-01T08:53:17.051Z,52.97
2024-01-01T08:58:39.147Z,49.65
2024-01-01T09:04:01.003Z,53.38
2024-01-01T09:09:22.793Z,47.53
2024-01-01T09:14:44.499Z,48.75
2024-01-01T09:20:07.209Z,42.85
2024-01-01T09:25:29.034Z,49.25
2024-01-01T09:30:50.834Z,40.58
2024-01-01T09:36:13.344Z,43.35
2024-01-01T09:41:35.118Z,44.08
2024-01-01T09:46:56.950Z,43.33
2024-01-01T09:52:18.759Z,35.88
2024-01-01T09:57:40.520Z,43.47
2024-01-01T10:03:09.229Z,36.10
2024-01-01T10:08:30.953Z,34.95
2024-01-01T10:13:53.060Z,37.30
2024-01-01T10:19:14.896Z,34.78
2024-01-01T10:27:25.974Z,31.40
2024-01-01T10:32:48.478Z,32.15
2024-01-01T10:38:12.037Z,32.40
2024-01-01T10:43:34.892Z,31.00
2024-01-01T10:48:57.648Z,31.15
2024-01-01T10:54:25.547Z,27.02
2024-01-01T11:00:05.597Z,29.63
2024-01-01T11:05:35.120Z,27.33
2024-01-01T11:10:57.176Z,25.85
2024-01-01T11:16:19.039Z,27.25
2024-01-01T11:21:40.796Z,26.75
2024-01-01T11:27:32.252Z,27.45
2024-01-01T11:33:02.305Z,27.20
2024-01-01T11:38:24.136Z,28.40
2024-01-01T11:43:45.939Z,26.70
2024-01-01T11:49:08.594Z,25.55
2024-01-01T11:54:30.453Z,26.52
2024-01-01T11:59:52.832Z,24.83
2024-01-01T12:05:19.643Z,27.58
2024-01-01T12:10:41.534Z,27.65
2024-01-01T12:16:16.892Z,24.40
2024-01-01T12:21:40.328Z,24.95
2024-01-01T12:27:02.840Z,24.38
2024-01-01T12:32:25.247Z,21.38
2024-01-01T12:37:47.098Z,19.70
2024-01-01T12:43:08.961Z,19.10
2024-01-01T12:48:30.859Z,18.83
2024-01-01T12:53:54.471Z,16.63
2024-01-01T12:59:16.268Z,19.38
2024-01-01T13:04:37.998Z,16.90
2024-01-01T13:09:59.739Z,16.27
2024-01-01T13:15:21.475Z,12.02
2024-01-01T13:20:43.227Z,15.23
2024-01-01T13:26:05.060Z,11.70
2024-01-01T13:31:26.864Z,11.95
2024-01-01T13:36:48.722Z,13.48
2024-01-01T13:42:10.452Z,14.07
2024-01-01T13:47:32.278Z,13.63
2024-01-01T13:52:54.212Z,11.75
2024-01-01T13:58:16.010Z,10.05
2024-01-01T14:03:37.780Z,13.93
2024-01-01T14:08:59.585Z,13.63
2024-01-01T14:14:21.456Z,12.27
2024-01-01T14:19:43.276Z,12.73
2024-01-01T14:25:05.582Z,12.07
2024-01-01T14:30:27.363Z,13.57
2024-01-01T14:35:49.173Z,15.82
2024-01-01T14:41:11.406Z,15.98
2024-01-01T14:46:33.181Z,17.40
2024-01-01T14:51:54.865Z,17.65
2024-01-01T14:57:16.728Z,14.65
2024-01-01T15:02:38.538Z,14.30
2024-01-01T15:08:00.365Z,15.27
2024-01-01T15:13:22.125Z,15.07
2024-01-01T15:18:43.935Z,14.70
2024-01-01T15:24:06.034Z,15.98
2024-01-01T15:29:27.774Z,14.57
2024-01-01T15:34:49.576Z,14.50
2024-01-01T15:40:11.827Z,15.52
2024-01-01T15:45:33.592Z,14.27
2024-01-01T15:51:00.898Z,13.45
2024-01-01T15:56:29.369Z,16.55
2024-01-01T16:01:51.149Z,15.40
2024-01-01T16:07:12.905Z,13.90
2024-01-01T16:12:35.051Z,15.07
2024-01-01T16:17:56.882Z,14.45
2024-01-01T16:23:23.228Z,19.25
2024-01-01T16:28:45.721Z,24.42
2024-01-01T16:34:07.433Z,25.52
2024-01-01T16:39:29.192Z,29.23
2024-01-01T16:44:50.928Z,30.55
2024-01-01T16:50:12.712Z,37.28
2024-01-01T16:55:34.493Z,33.70
2024-01-01T17:00:56.239Z,33.70
2024-01-01T17:06:19.097Z,39.53
2024-01-01T17:11:43.956Z,35.58
2024-01-01T17:17:05.739Z,39.13
2024-01-01T17:22:27.465Z,37.55
2024-01-01T17:27:49.177Z,37.83
2024-01-01T17:33:11.251Z,38.35
2024-01-01T17:38:33.302Z,40.97
2024-01-01T17:43:55.064Z,40.40
2024-01-01T17:49:16.895Z,40.83
2024-01-01T17:54:41.492Z,42.22
2024-01-01T18:00:03.419Z,40.65
2024-01-01T18:05:25.183Z,46.80
2024-01-01T18:10:48.778Z,43.58
2024-01-01T18:16:11.011Z,43.83
2024-01-01T18:21:32.725Z,46.00
2024-01-01T18:26:54.477Z,45.70
2024-01-01T18:32:16.467Z,45.88
2024-01-01T18:37:38.209Z,48.28
2024-01-01T18:42:59.974Z,48.33
2024-01-01T18:48:21.887Z,46.63
2024-01-01T18:53:43.696Z,48.97
2024-01-01T18:59:05.542Z,53.95
2024-01-01T19:04:27.526Z,54.63
2024-01-01T19:09:49.325Z,52.35
2024-01-01T19:15:11.270Z,54.78
2024-01-01T19:20:33.039Z,49.88
2024-01-01T19:25:54.840Z,50.15
2024-01-01T19:31:16.647Z,50.60
2024-01-01T19:36:38.401Z,50.60
2024-01-01T19:42:00.168Z,52.08
2024-01-01T19:47:22.071Z,52.60
2024-01-01T19:52:43.827Z,53.80
2024-01-01T19:58:05.562Z,49.90
2024-01-01T20:03:27.362Z,46.47
2024-01-01T20:08:49.338Z,46.35
2024-01-01T20:14:11.169Z,48.35
2024-01-01T20:19:32.929Z,46.22
2024-01-01T20:24:54.699Z,45.78
2024-01-01T20:30:16.528Z,39.47
2024-01-01T20:35:38.276Z,46.88
2024-01-01T20:41:00.016Z,40.53
2024-01-01T20:46:22.128Z,37.88
2024-01-01T20:51:43.897Z,39.75
2024-01-01T20:57:05.730Z,39.28
2024-01-01T21:02:27.614Z,34.35
2024-01-01T21:07:49.665Z,36.03
2024-01-01T21:13:11.427Z,36.15
2024-01-01T21:18:33.560Z,34.38
2024-01-01T21:23:55.751Z,34.17
2024-01-01T21:29:17.536Z,35.22
2024-01-01T21:34:39.304Z,35.10
2024-01-01T21:40:01.041Z,34.30
2024-01-01T21:45:22.768Z,32.50
2024-01-01T21:50:44.746Z,30.92
2024-01-01T21:56:07.224Z,30.80
2024-01-01T22:01:28.979Z,30.58
2024-01-01T22:06:50.704Z,27.83
2024-01-01T22:12:12.443Z,31.75
2024-01-01T22:17:34.375Z,30.88
2024-01-01T22:22:56.446Z,30.70
2024-01-01T22:28:18.205Z,32.95
2024-01-01T22:33:39.995Z,31.02
2024-01-01T22:39:01.763Z,28.25
2024-01-01T22:44:23.517Z,33.33
2024-01-01T22:49:45.314Z,34.15
2024-01-01T22:55:07.332Z,32.63
2024-01-01T23:00:29.085Z,30.83
2024-01-01T23:05:50.949Z,29.35
2024-01-01T23:11:12.963Z,30.30
2024-01-01T23:16:34.889Z,30.67
2024-01-01T23:21:56.614Z,29.05
2024-01-01T23:27:18.363Z,32.22
2024-01-01T23:32:40.220Z,29.95
2024-01-01T23:38:02.095Z,29.13
2024-01-01T23:43:23.829Z,32.42
2024-01-01T23:48:45.650Z,30.50
2024-01-01T23:54:07.525Z,32.85
2024-01-01T23:59:29.375Z,33.80
